Time;durP1;ratioP1;P1;durP2;ratioP2;P2;SDS_P1;SDS_P2;PMS_P1;PMS_P2;Temp;Humidity;BMP_temperature;BMP_pressure;BME280_temperature;BME280_humidity;BME280_pressure;Samples;Min_cycle;Max_cycle;Signal;HPM_P1;HPM_P2
2022/04/12 00:01:33;;;;;;;5.85;3.20;;;9.20;79.30;;;;;;5021626;28;20096;-59
2022/04/12 00:04:00;;;;;;;8.63;3.88;;;9.10;79.40;;;;;;5007081;28;20037;-61
2022/04/12 00:06:26;;;;;;;7.85;4.13;;;9.30;79.40;;;;;;5025585;28;20021;-58
2022/04/12 00:08:52;;;;;;;7.18;3.60;;;9.20;80.20;;;;;;5019326;28;20036;-60
2022/04/12 00:11:17;;;;;;;7.32;3.47;;;9.10;80.90;;;;;;5000801;28;20583;-58
2022/04/12 00:13:43;;;;;;;7.63;4.13;;;9.00;82.20;;;;;;5023126;28;20518;-59
2022/04/12 00:16:09;;;;;;;7.88;3.67;;;9.00;81.90;;;;;;5012703;28;20064;-60
2022/04/12 00:21:19;;;;;;;8.70;3.25;;;9.00;81.00;;;;;;5030968;28;20032;-59
2022/04/12 00:23:46;;;;;;;7.03;3.75;;;9.10;81.10;;;;;;5027435;28;20100;-58
2022/04/12 00:26:11;;;;;;;8.25;3.55;;;9.20;80.50;;;;;;5028622;28;20030;-58
2022/04/12 00:28:37;;;;;;;8.13;3.60;;;9.20;79.90;;;;;;5023347;28;20100;-60
2022/04/12 00:31:03;;;;;;;6.28;3.50;;;9.20;80.60;;;;;;5030660;28;20036;-60
2022/04/12 00:33:29;;;;;;;7.32;4.25;;;9.20;80.20;;;;;;5030697;28;20068;-60
2022/04/12 00:35:56;;;;;;;6.28;3.67;;;9.30;80.20;;;;;;5030585;28;20028;-60
2022/04/12 00:38:25;;;;;;;5.93;3.72;;;9.20;80.50;;;;;;5029585;28;20060;-59
2022/04/12 00:40:51;;;;;;;9.40;3.67;;;9.20;80.50;;;;;;5029466;28;20033;-57
2022/04/12 00:43:18;;;;;;;7.32;3.65;;;9.20;80.80;;;;;;5028382;28;20404;-60
2022/04/12 00:45:44;;;;;;;7.35;4.30;;;9.20;81.10;;;;;;5032196;28;20048;-60
2022/04/12 00:48:10;;;;;;;7.32;3.35;;;9.10;81.90;;;;;;5030136;28;20513;-60
2022/04/12 00:50:37;;;;;;;4.43;3.00;;;9.10;81.20;;;;;;5013734;28;20104;-59
2022/04/12 00:53:03;;;;;;;8.18;4.22;;;9.10;82.10;;;;;;5029361;28;20037;-59
2022/04/12 00:55:29;;;;;;;8.18;3.70;;;9.00;82.70;;;;;;5029724;28;20021;-60
2022/04/12 00:57:56;;;;;;;8.65;4.80;;;9.00;82.10;;;;;;5029770;28;20036;-59
2022/04/12 01:00:22;;;;;;;8.38;3.75;;;9.00;81.80;;;;;;5013256;28;20029;-59
2022/04/12 01:02:47;;;;;;;7.60;3.72;;;9.10;81.90;;;;;;5031514;28;20420;-60
2022/04/12 01:05:13;;;;;;;9.45;3.85;;;9.00;82.20;;;;;;5029546;28;20025;-59
2022/04/12 01:07:42;;;;;;;9.98;3.58;;;8.90;82.70;;;;;;5029795;28;20033;-60
2022/04/12 01:10:08;;;;;;;6.75;3.22;;;8.90;82.60;;;;;;5030056;28;20079;-60
2022/04/12 01:12:41;;;;;;;7.20;3.90;;;8.90;82.60;;;;;;5028247;28;20030;-60
2022/04/12 01:15:14;;;;;;;7.30;3.92;;;8.90;82.80;;;;;;5013150;28;20033;-60
2022/04/12 01:17:41;;;;;;;6.63;3.55;;;9.00;82.60;;;;;;5023819;28;20033;-60
2022/04/12 01:20:07;;;;;;;10.05;3.90;;;9.00;82.40;;;;;;5012925;28;20512;-59
2022/04/12 01:22:34;;;;;;;7.57;3.67;;;9.10;82.40;;;;;;5026798;28;20021;-57
2022/04/12 01:25:00;;;;;;;7.70;3.92;;;9.10;82.20;;;;;;5025766;28;20044;-59
2022/04/12 01:27:27;;;;;;;6.35;3.72;;;9.20;82.00;;;;;;5026397;28;20389;-60
2022/04/12 01:29:53;;;;;;;8.60;3.88;;;9.10;81.90;;;;;;5027814;28;20034;-61
2022/04/12 01:32:18;;;;;;;10.82;3.67;;;9.20;82.00;;;;;;5020986;28;20034;-59
2022/04/12 01:34:44;;;;;;;9.40;3.08;;;9.10;82.80;;;;;;5012515;28;20034;-59
2022/04/12 01:37:09;;;;;;;7.45;3.97;;;9.20;82.00;;;;;;5019711;28;20129;-59
2022/04/12 01:39:35;;;;;;;6.90;3.50;;;9.10;82.30;;;;;;5017533;28;20083;-59
2022/04/12 01:42:00;;;;;;;8.35;3.28;;;9.10;82.40;;;;;;5014584;28;20477;-57
2022/04/12 01:44:27;;;;;;;7.13;3.58;;;9.10;83.00;;;;;;5017668;28;20029;-60
2022/04/12 01:46:52;;;;;;;4.43;2.92;;;9.00;83.00;;;;;;5016873;28;20501;-59
2022/04/12 01:49:18;;;;;;;7.95;3.35;;;9.00;82.80;;;;;;5030679;28;20044;-59
2022/04/12 01:51:43;;;;;;;10.18;4.35;;;9.00;82.80;;;;;;5023894;28;20486;-59
2022/04/12 01:54:10;;;;;;;7.35;3.63;;;9.00;82.60;;;;;;5022217;28;20038;-58
2022/04/12 01:56:35;;;;;;;7.10;3.28;;;9.00;83.10;;;;;;5028584;28;20034;-57
2022/04/12 01:59:02;;;;;;;6.97;4.03;;;8.90;83.80;;;;;;5029576;28;20033;-61
2022/04/12 02:01:28;;;;;;;6.63;3.40;;;8.90;83.40;;;;;;5026186;28;20037;-60
2022/04/12 02:03:54;;;;;;;5.53;3.03;;;9.00;83.40;;;;;;5029381;28;20037;-59
2022/04/12 02:06:20;;;;;;;5.22;3.30;;;8.90;83.40;;;;;;5030860;28;20041;-61
2022/04/12 02:08:45;;;;;;;5.97;3.33;;;8.90;83.60;;;;;;5030649;28;20033;-61
2022/04/12 02:11:11;;;;;;;5.68;3.13;;;8.90;83.80;;;;;;5030740;28;20397;-61
2022/04/12 02:13:36;;;;;;;9.23;3.72;;;9.00;83.50;;;;;;5030636;28;20037;-60
2022/04/12 02:16:02;;;;;;;6.38;3.33;;;9.00;83.40;;;;;;5030110;28;20075;-58
2022/04/12 02:18:28;;;;;;;5.80;3.08;;;9.10;83.20;;;;;;5030900;28;20064;-60
2022/04/12 02:20:53;;;;;;;6.85;3.00;;;9.10;83.30;;;;;;5030688;28;20112;-60
2022/04/12 02:23:19;;;;;;;5.75;3.38;;;9.10;83.60;;;;;;5030268;28;20069;-61
2022/04/12 02:25:44;;;;;;;8.85;3.10;;;9.10;83.10;;;;;;5030326;28;20120;-60
2022/04/12 02:28:09;;;;;;;9.65;3.53;;;9.10;83.30;;;;;;5029713;28;20059;-61
2022/04/12 02:30:36;;;;;;;4.90;3.10;;;9.10;83.70;;;;;;5030313;28;20033;-60
2022/04/12 02:33:02;;;;;;;6.00;3.63;;;9.10;83.00;;;;;;5029917;28;20057;-61
2022/04/12 02:35:27;;;;;;;5.18;3.38;;;9.10;83.10;;;;;;5034038;28;20480;-60
2022/04/12 02:37:53;;;;;;;5.47;3.03;;;9.10;83.40;;;;;;5034183;28;20029;-61
2022/04/12 02:40:19;;;;;;;6.88;2.72;;;9.20;83.80;;;;;;5034008;28;20029;-60
2022/04/12 02:42:44;;;;;;;7.05;3.35;;;9.10;83.90;;;;;;5033751;28;20037;-60
2022/04/12 02:45:10;;;;;;;11.18;3.63;;;9.10;83.30;;;;;;5034265;28;20045;-59
2022/04/12 02:47:36;;;;;;;6.95;2.90;;;9.10;84.10;;;;;;5033160;28;20692;-61
2022/04/12 02:50:02;;;;;;;6.18;2.85;;;9.00;85.00;;;;;;5034232;28;20054;-60
2022/04/12 02:52:28;;;;;;;8.32;3.53;;;9.00;83.90;;;;;;5031004;28;20479;-59
2022/04/12 02:54:54;;;;;;;5.25;3.03;;;9.10;84.00;;;;;;5033571;28;20108;-60
2022/04/12 02:57:19;;;;;;;6.88;3.10;;;9.10;84.20;;;;;;5033014;28;20033;-60
2022/04/12 02:59:45;;;;;;;8.73;3.03;;;9.10;84.00;;;;;;5033299;28;20451;-60
2022/04/12 03:02:10;;;;;;;4.47;2.50;;;9.10;84.50;;;;;;5033568;28;20037;-60
2022/04/12 03:04:36;;;;;;;6.97;3.15;;;9.10;85.10;;;;;;5033399;28;20033;-61
2022/04/12 03:07:01;;;;;;;7.35;3.47;;;9.10;84.10;;;;;;5031129;28;20037;-61
2022/04/12 03:09:28;;;;;;;9.27;3.35;;;9.10;84.70;;;;;;5032618;28;20033;-61
2022/04/12 03:11:54;;;;;;;5.25;3.33;;;9.10;83.80;;;;;;5032155;28;20053;-59
2022/04/12 03:14:19;;;;;;;5.85;3.20;;;9.20;84.60;;;;;;5033642;28;20072;-61
2022/04/12 03:16:45;;;;;;;6.05;2.95;;;9.10;84.80;;;;;;5033763;28;20036;-60
2022/04/12 03:19:11;;;;;;;4.63;2.83;;;9.20;83.90;;;;;;5032879;28;20025;-61
2022/04/12 03:21:36;;;;;;;5.95;3.25;;;9.20;84.00;;;;;;5033434;28;20086;-60
2022/04/12 03:24:02;;;;;;;7.32;3.45;;;9.20;84.00;;;;;;5032308;28;20033;-59
2022/04/12 03:26:27;;;;;;;6.32;2.92;;;9.20;84.10;;;;;;5028669;28;20094;-60
2022/04/12 03:28:53;;;;;;;7.47;3.13;;;9.20;83.70;;;;;;5031867;28;20101;-61
2022/04/12 03:31:18;;;;;;;3.78;2.80;;;9.30;83.70;;;;;;5032221;28;20116;-59
2022/04/12 03:33:46;;;;;;;6.47;3.00;;;9.40;84.60;;;;;;5031610;28;20021;-60
2022/04/12 03:36:12;;;;;;;6.35;2.90;;;9.40;83.70;;;;;;5028701;28;20038;-60
2022/04/12 03:38:46;;;;;;;6.55;2.97;;;9.40;84.00;;;;;;5032804;28;20112;-60
2022/04/12 03:41:12;;;;;;;5.72;2.70;;;9.40;84.20;;;;;;5032512;28;20511;-60
2022/04/12 03:43:38;;;;;;;6.47;3.50;;;9.40;84.40;;;;;;5032722;28;20119;-58
2022/04/12 03:46:04;;;;;;;8.57;3.65;;;9.40;84.00;;;;;;5032796;28;20405;-61
2022/04/12 03:48:29;;;;;;;7.82;3.13;;;9.30;84.70;;;;;;5032513;28;20032;-60
2022/04/12 03:50:55;;;;;;;5.20;3.10;;;9.30;84.30;;;;;;5033065;28;20419;-61
2022/04/12 03:53:20;;;;;;;6.28;3.28;;;9.40;84.50;;;;;;5031859;28;20048;-61
2022/04/12 03:55:46;;;;;;;6.93;3.10;;;9.30;84.80;;;;;;5032689;28;20037;-61
2022/04/12 03:58:12;;;;;;;7.45;3.00;;;9.30;84.90;;;;;;5022495;28;20037;-60
2022/04/12 04:00:38;;;;;;;7.88;3.22;;;9.30;85.40;;;;;;5028398;28;20021;-61
2022/04/12 04:03:03;;;;;;;6.13;2.97;;;9.30;85.30;;;;;;5031107;28;20041;-59
2022/04/12 04:05:29;;;;;;;8.75;2.65;;;9.30;85.20;;;;;;5026002;28;20031;-61
2022/04/12 04:07:55;;;;;;;8.98;3.22;;;9.30;85.20;;;;;;5032330;28;20404;-59
2022/04/12 04:10:21;;;;;;;7.05;3.55;;;9.30;85.30;;;;;;5032300;28;20112;-61
2022/04/12 04:12:46;;;;;;;11.63;3.47;;;9.30;85.40;;;;;;5032537;28;20041;-61
2022/04/12 04:15:13;;;;;;;5.55;2.80;;;9.30;85.40;;;;;;5031616;28;20022;-61
2022/04/12 04:17:45;;;;;;;7.07;2.65;;;9.20;86.10;;;;;;5031837;28;20104;-59
2022/04/12 04:20:13;;;;;;;6.05;2.95;;;9.10;86.10;;;;;;5029769;28;20025;-61
2022/04/12 04:22:40;;;;;;;4.85;2.75;;;9.00;86.90;;;;;;5031207;28;20048;-59
2022/04/12 04:25:10;;;;;;;6.82;2.88;;;8.90;88.30;;;;;;5031191;28;20026;-58
2022/04/12 04:27:36;;;;;;;6.35;2.80;;;8.90;87.40;;;;;;5030627;28;20500;-60
2022/04/12 04:30:04;;;;;;;6.30;3.10;;;8.90;87.20;;;;;;5030803;28;20028;-61
2022/04/12 04:32:30;;;;;;;6.35;2.75;;;8.90;87.50;;;;;;5013789;28;20026;-61
2022/04/12 04:34:55;;;;;;;4.72;2.50;;;8.90;87.60;;;;;;5030280;28;20029;-60
2022/04/12 04:37:21;;;;;;;5.75;2.72;;;8.90;87.20;;;;;;5028782;28;20085;-61
2022/04/12 04:39:46;;;;;;;5.00;2.50;;;8.90;87.10;;;;;;5063054;22;20056;-60
2022/04/12 04:42:12;;;;;;;5.13;2.58;;;8.90;87.30;;;;;;5059333;28;20016;-60
2022/04/12 04:44:38;;;;;;;5.15;2.53;;;8.90;87.60;;;;;;5069483;28;20021;-58
2022/04/12 04:47:03;;;;;;;5.43;3.10;;;8.90;88.10;;;;;;5063071;28;20056;-58
2022/04/12 04:49:29;;;;;;;6.10;2.95;;;8.80;89.00;;;;;;5062230;28;20025;-57
2022/04/12 04:51:55;;;;;;;5.50;2.65;;;8.70;89.00;;;;;;5051866;28;20399;-59
2022/04/12 04:54:20;;;;;;;5.47;3.08;;;8.60;89.50;;;;;;5051763;28;20484;-57
2022/04/12 04:56:46;;;;;;;6.18;2.80;;;8.50;90.10;;;;;;5050880;28;20074;-54
2022/04/12 04:59:12;;;;;;;9.70;4.50;;;8.40;91.10;;;;;;5064419;28;20491;-57
2022/04/12 05:01:38;;;;;;;7.60;2.75;;;8.40;91.20;;;;;;5051744;28;20099;-57
2022/04/12 05:04:03;;;;;;;5.65;2.63;;;8.40;91.30;;;;;;5055818;28;20107;-51
2022/04/12 05:06:29;;;;;;;5.50;2.80;;;8.50;90.80;;;;;;5052468;28;20035;-54
2022/04/12 05:08:54;;;;;;;4.28;2.50;;;8.60;90.30;;;;;;5066697;28;20099;-58
2022/04/12 05:11:20;;;;;;;4.72;2.53;;;8.70;90.00;;;;;;5052224;28;20040;-59
2022/04/12 05:13:46;;;;;;;5.95;3.03;;;8.80;89.70;;;;;;5061502;28;20048;-59
2022/04/12 05:16:11;;;;;;;5.22;2.75;;;8.90;89.30;;;;;;5061471;28;20112;-58
2022/04/12 05:18:37;;;;;;;7.80;2.95;;;9.00;89.30;;;;;;5050731;28;20102;-56
2022/04/12 05:21:02;;;;;;;7.20;2.92;;;9.10;88.70;;;;;;5051488;28;20033;-56
2022/04/12 05:23:28;;;;;;;6.18;3.08;;;9.20;88.70;;;;;;5050969;28;20599;-59
2022/04/12 05:25:54;;;;;;;3.63;2.10;;;9.20;89.50;;;;;;5050983;28;20025;-60
2022/04/12 05:28:20;;;;;;;11.10;3.28;;;9.40;88.10;;;;;;5061878;28;20028;-55
2022/04/12 05:30:46;;;;;;;10.98;3.50;;;9.60;87.80;;;;;;5055041;28;20020;-59
2022/04/12 05:33:12;;;;;;;4.60;2.38;;;9.80;85.90;;;;;;5050831;28;20043;-56
2022/04/12 05:35:38;;;;;;;6.60;2.47;;;9.90;85.30;;;;;;5051819;28;20025;-57
2022/04/12 05:38:05;;;;;;;6.13;2.60;;;10.10;85.20;;;;;;5058650;28;20029;-51
2022/04/12 05:40:32;;;;;;;6.82;3.13;;;10.20;84.80;;;;;;5057733;28;20027;-60
2022/04/12 05:42:57;;;;;;;5.18;2.90;;;10.30;84.00;;;;;;5058191;28;20064;-61
2022/04/12 05:45:23;;;;;;;5.22;2.92;;;10.40;83.60;;;;;;5051133;28;20052;-58
2022/04/12 05:47:51;;;;;;;5.10;2.50;;;10.50;84.30;;;;;;5050382;28;20037;-58
2022/04/12 05:50:18;;;;;;;6.60;3.45;;;10.50;84.10;;;;;;5050739;28;20562;-59
2022/04/12 05:52:44;;;;;;;6.43;2.95;;;10.50;84.80;;;;;;5054641;28;20039;-58
2022/04/12 05:55:11;;;;;;;6.50;3.00;;;10.60;83.60;;;;;;5056514;28;20021;-57
2022/04/12 05:57:38;;;;;;;4.93;2.72;;;10.70;83.60;;;;;;5055124;28;20388;-58
2022/04/12 06:00:07;;;;;;;5.07;2.90;;;10.90;82.60;;;;;;5053351;28;20377;-49
2022/04/12 06:02:33;;;;;;;6.30;2.95;;;11.10;83.80;;;;;;5045883;28;20109;-59
2022/04/12 06:04:58;;;;;;;6.72;2.97;;;11.70;81.20;;;;;;5051252;28;20036;-60
2022/04/12 06:07:31;;;;;;;4.45;2.60;;;12.20;79.90;;;;;;5049979;28;20029;-59
2022/04/12 06:09:56;;;;;;;6.90;3.22;;;12.40;78.40;;;;;;5053760;28;20079;-59
2022/04/12 06:12:22;;;;;;;4.25;2.92;;;12.80;77.40;;;;;;5058848;28;20392;-60
2022/04/12 06:14:47;;;;;;;7.47;2.50;;;13.00;76.60;;;;;;5060978;28;20032;-59
2022/04/12 06:17:13;;;;;;;6.47;3.45;;;13.60;76.50;;;;;;5058970;28;20031;-60
2022/04/12 06:19:38;;;;;;;4.78;3.50;;;13.60;74.20;;;;;;5070636;28;20028;-57
2022/04/12 06:22:04;;;;;;;8.85;3.42;;;14.10;74.20;;;;;;5066998;28;20032;-57
2022/04/12 06:24:30;;;;;;;9.55;3.95;;;14.30;72.80;;;;;;5055653;28;20032;-58
2022/04/12 06:26:55;;;;;;;5.75;3.50;;;14.30;72.50;;;;;;5054111;28;20033;-57
2022/04/12 06:29:21;;;;;;;7.32;2.88;;;14.20;73.50;;;;;;5054639;28;20078;-59
2022/04/12 06:31:46;;;;;;;4.75;3.00;;;14.90;72.10;;;;;;5053873;28;20036;-60
2022/04/12 06:34:11;;;;;;;5.53;3.28;;;15.00;71.40;;;;;;5067106;28;20143;-59
2022/04/12 06:36:37;;;;;;;7.53;3.72;;;14.90;72.00;;;;;;5055132;28;20021;-61
2022/04/12 06:39:03;;;;;;;8.23;3.78;;;15.00;71.50;;;;;;5053545;28;20024;-60
2022/04/12 06:41:28;;;;;;;5.68;3.60;;;15.30;70.60;;;;;;5065483;28;20028;-59
2022/04/12 06:43:54;;;;;;;7.53;3.22;;;15.40;70.30;;;;;;5058629;28;20065;-57
2022/04/12 06:46:19;;;;;;;8.95;3.85;;;15.40;70.50;;;;;;5055255;28;20029;-59
2022/04/12 06:48:45;;;;;;;9.27;3.42;;;15.40;70.60;;;;;;5054127;28;20415;-60
2022/04/12 06:51:10;;;;;;;6.30;3.78;;;15.00;70.40;;;;;;5062383;28;20494;-60
2022/04/12 06:53:36;;;;;;;4.03;3.13;;;14.80;71.80;;;;;;5057680;28;20036;-60
2022/04/12 06:56:02;;;;;;;9.40;4.35;;;14.80;72.80;;;;;;5067664;28;20062;-57
2022/04/12 06:58:27;;;;;;;5.90;3.55;;;14.70;72.00;;;;;;5053107;28;20099;-58
2022/04/12 07:00:53;;;;;;;5.35;3.30;;;14.60;72.20;;;;;;5014460;28;20045;-59
2022/04/12 07:03:18;;;;;;;5.93;3.45;;;14.50;73.20;;;;;;5023595;28;20033;-59
2022/04/12 07:05:45;;;;;;;10.30;3.55;;;14.10;73.90;;;;;;5031624;28;20064;-60
2022/04/12 07:08:12;;;;;;;4.88;3.58;;;14.30;74.00;;;;;;5030955;28;20611;-59
2022/04/12 07:10:37;;;;;;;9.55;3.40;;;14.90;75.30;;;;;;5032137;28;20534;-56
2022/04/12 07:13:03;;;;;;;6.68;4.00;;;15.30;73.50;;;;;;5030823;28;20060;-57
2022/04/12 07:15:29;;;;;;;6.57;3.53;;;15.80;70.80;;;;;;5033354;28;20100;-59
2022/04/12 07:17:54;;;;;;;4.25;3.30;;;16.10;71.30;;;;;;5030746;28;20034;-60
2022/04/12 07:20:20;;;;;;;7.95;3.70;;;16.80;69.40;;;;;;5029795;28;20025;-62
2022/04/12 07:22:46;;;;;;;5.57;3.63;;;16.90;68.30;;;;;;5030260;28;20550;-57
2022/04/12 07:25:11;;;;;;;6.95;3.72;;;17.00;67.70;;;;;;5033721;28;20025;-59
2022/04/12 07:27:37;;;;;;;5.05;3.05;;;17.80;68.20;;;;;;5032627;28;20030;-58
2022/04/12 07:30:05;;;;;;;6.90;3.50;;;18.60;67.00;;;;;;5030636;28;20468;-55
2022/04/12 07:32:30;;;;;;;4.40;3.17;;;19.10;65.20;;;;;;5031328;28;20506;-60
2022/04/12 07:34:56;;;;;;;7.15;3.28;;;19.20;65.50;;;;;;5030881;28;20108;-57
2022/04/12 07:37:21;;;;;;;5.88;3.17;;;19.20;64.40;;;;;;5030923;28;20443;-60
2022/04/12 07:39:47;;;;;;;4.95;2.42;;;19.20;62.30;;;;;;5029907;28;20048;-61
2022/04/12 07:42:14;;;;;;;3.92;2.95;;;19.80;63.30;;;;;;5030572;28;20033;-60
2022/04/12 07:44:39;;;;;;;4.55;3.03;;;19.80;64.50;;;;;;5029546;28;20021;-58
2022/04/12 07:47:05;;;;;;;5.07;2.85;;;20.10;61.10;;;;;;5021686;28;20035;-60
2022/04/12 07:49:31;;;;;;;5.68;3.05;;;20.60;61.40;;;;;;5031231;28;20124;-59
2022/04/12 07:51:56;;;;;;;5.68;3.00;;;20.90;59.10;;;;;;5031385;28;20071;-59
2022/04/12 07:54:22;;;;;;;5.72;3.30;;;21.10;59.90;;;;;;5031362;28;20041;-58
2022/04/12 07:56:47;;;;;;;7.05;3.15;;;21.80;58.20;;;;;;5030473;28;20037;-59
2022/04/12 07:59:13;;;;;;;5.55;3.35;;;21.80;57.70;;;;;;5023873;28;20508;-60
2022/04/12 08:01:39;;;;;;;4.03;2.65;;;22.20;56.80;;;;;;5013786;28;20041;-61
2022/04/12 08:04:04;;;;;;;5.10;3.58;;;23.30;57.80;;;;;;5024048;28;20108;-58
2022/04/12 08:06:30;;;;;;;6.93;3.15;;;23.50;56.10;;;;;;5029457;28;20036;-60
2022/04/12 08:08:56;;;;;;;5.70;3.28;;;24.50;54.00;;;;;;5031077;28;20600;-59
2022/04/12 08:11:21;;;;;;;5.45;2.80;;;24.10;53.90;;;;;;5031090;28;20049;-60
2022/04/12 08:13:47;;;;;;;6.75;2.50;;;24.30;51.80;;;;;;5030640;28;20030;-60
2022/04/12 08:16:15;;;;;;;4.45;2.65;;;23.60;52.60;;;;;;5031644;28;20021;-60
2022/04/12 08:18:44;;;;;;;3.58;2.88;;;23.20;54.60;;;;;;5029965;28;20013;-60
2022/04/12 08:21:10;;;;;;;4.20;2.45;;;23.60;56.30;;;;;;5029925;28;20029;-59
2022/04/12 08:23:35;;;;;;;5.57;2.97;;;23.60;54.20;;;;;;5026728;28;20037;-61
2022/04/12 08:26:01;;;;;;;3.85;2.50;;;24.40;53.00;;;;;;5030053;28;20892;-60
2022/04/12 08:28:26;;;;;;;3.67;2.53;;;24.20;52.80;;;;;;5030067;28;20034;-61
2022/04/12 08:30:52;;;;;;;3.92;2.80;;;23.60;54.60;;;;;;5028644;28;20033;-57
2022/04/12 08:33:18;;;;;;;4.78;2.70;;;23.80;54.00;;;;;;5026026;28;20523;-61
2022/04/12 08:35:43;;;;;;;6.32;2.95;;;24.30;53.30;;;;;;5029730;28;20484;-60
2022/04/12 08:38:09;;;;;;;3.47;2.65;;;24.50;52.10;;;;;;5027175;28;20101;-60
2022/04/12 08:40:36;;;;;;;4.80;3.13;;;25.00;51.80;;;;;;5025593;28;20029;-57
2022/04/12 08:43:02;;;;;;;6.75;3.00;;;25.00;52.40;;;;;;5029848;28;20102;-61
2022/04/12 08:45:28;;;;;;;5.05;2.50;;;25.20;51.90;;;;;;5029825;28;20403;-59
2022/04/12 08:47:55;;;;;;;7.18;2.95;;;25.80;51.30;;;;;;5026029;28;20041;-61
2022/04/12 08:50:23;;;;;;;3.17;2.42;;;25.80;50.80;;;;;;5027214;28;20029;-61
2022/04/12 08:52:50;;;;;;;3.58;2.60;;;26.00;50.20;;;;;;5024603;28;20026;-61
2022/04/12 08:55:16;;;;;;;3.70;2.22;;;25.70;49.30;;;;;;5029055;28;20691;-59
2022/04/12 08:57:41;;;;;;;3.63;2.55;;;25.40;49.00;;;;;;5020648;28;20034;-61
2022/04/12 09:00:07;;;;;;;4.50;2.65;;;25.50;49.50;;;;;;5029852;28;20041;-55
2022/04/12 09:02:33;;;;;;;4.13;2.70;;;25.50;50.90;;;;;;5013171;28;20033;-58
2022/04/12 09:04:59;;;;;;;4.32;2.30;;;25.50;48.70;;;;;;5029993;28;20083;-61
2022/04/12 09:07:26;;;;;;;3.38;2.38;;;25.60;50.00;;;;;;5029883;28;20021;-60
2022/04/12 09:09:52;;;;;;;8.20;2.42;;;25.50;49.50;;;;;;5030809;28;20099;-60
2022/04/12 09:12:18;;;;;;;2.35;1.80;;;25.40;49.40;;;;;;5030163;28;20037;-58
2022/04/12 09:14:47;;;;;;;3.70;2.42;;;25.30;51.40;;;;;;5029575;28;20021;-61
2022/04/12 09:17:15;;;;;;;6.30;2.38;;;25.20;50.00;;;;;;5028282;28;20033;-61
2022/04/12 09:19:44;;;;;;;5.93;2.13;;;25.50;51.70;;;;;;5024499;28;20063;-61
2022/04/12 09:22:16;;;;;;;3.33;2.00;;;25.60;47.50;;;;;;5029884;28;20021;-61
2022/04/12 09:24:53;;;;;;;3.83;2.17;;;25.30;49.50;;;;;;5029621;28;20695;-61
2022/04/12 09:27:20;;;;;;;4.57;2.47;;;25.10;50.50;;;;;;5029262;28;20069;-61
2022/04/12 09:29:50;;;;;;;5.68;2.17;;;25.00;49.70;;;;;;5025589;28;20034;-60
2022/04/12 09:32:19;;;;;;;3.95;2.17;;;24.60;48.50;;;;;;5024747;28;20110;-60
2022/04/12 09:34:45;;;;;;;4.63;1.90;;;23.90;50.60;;;;;;5029591;28;20036;-59
2022/04/12 09:37:25;;;;;;;4.15;2.33;;;23.90;51.70;;;;;;5028491;28;20030;-60
2022/04/12 09:39:59;;;;;;;3.47;2.13;;;24.00;51.70;;;;;;5020591;28;20706;-60
2022/04/12 09:42:49;;;;;;;6.30;2.10;;;24.20;51.60;;;;;;5028890;28;20044;-60
2022/04/12 09:45:22;;;;;;;4.15;2.55;;;24.70;49.80;;;;;;5021698;28;20116;-60
2022/04/12 09:47:50;;;;;;;5.40;2.20;;;24.70;49.40;;;;;;5029241;28;20537;-58
2022/04/12 09:50:15;;;;;;;4.20;2.15;;;24.90;50.70;;;;;;5029367;28;20035;-61
2022/04/12 09:52:54;;;;;;;3.70;2.08;;;24.70;50.40;;;;;;5029026;28;20017;-61
2022/04/12 09:55:44;;;;;;;4.65;2.03;;;24.50;48.90;;;;;;5027037;28;20108;-58
2022/04/12 09:58:12;;;;;;;3.90;2.15;;;24.70;50.10;;;;;;5025963;28;20021;-59
2022/04/12 10:00:39;;;;;;;3.55;2.22;;;24.50;49.60;;;;;;5001624;28;20192;-59
2022/04/12 10:03:07;;;;;;;3.78;1.70;;;24.40;49.70;;;;;;5027638;28;20033;-58
2022/04/12 10:05:33;;;;;;;4.60;1.83;;;23.90;49.90;;;;;;5028632;28;20033;-60
2022/04/12 10:08:01;;;;;;;6.45;2.38;;;23.60;52.20;;;;;;5024183;28;20516;-56
2022/04/12 10:10:27;;;;;;;3.70;1.70;;;23.40;51.70;;;;;;5026237;28;20113;-57
2022/04/12 10:12:54;;;;;;;3.80;2.20;;;23.00;51.10;;;;;;5027461;28;20097;-59
2022/04/12 10:15:21;;;;;;;3.28;2.10;;;22.30;52.40;;;;;;5028091;28;20048;-58
2022/04/12 10:17:48;;;;;;;7.03;2.35;;;22.20;53.40;;;;;;5027541;28;20057;-58
2022/04/12 10:20:15;;;;;;;6.05;2.60;;;22.20;53.90;;;;;;5027654;28;20083;-59
2022/04/12 10:22:42;;;;;;;5.45;2.50;;;22.20;53.30;;;;;;5024828;28;20088;-58
2022/04/12 10:25:10;;;;;;;5.03;2.25;;;22.20;54.20;;;;;;5024596;28;20022;-58
2022/04/12 10:27:37;;;;;;;5.05;2.78;;;22.30;54.50;;;;;;5012605;28;20028;-59
2022/04/12 10:30:21;;;;;;;3.55;1.98;;;22.20;54.50;;;;;;5024472;28;20021;-57
2022/04/12 10:33:06;;;;;;;2.58;1.77;;;22.40;54.60;;;;;;5027117;28;20108;-62
2022/04/12 10:35:54;;;;;;;5.10;2.10;;;22.40;53.90;;;;;;5027210;28;20068;-59
2022/04/12 10:38:22;;;;;;;5.50;2.28;;;22.30;53.90;;;;;;5017578;28;20147;-58
2022/04/12 10:40:53;;;;;;;4.28;2.33;;;22.20;52.90;;;;;;5024611;28;20083;-59
2022/04/12 10:43:33;;;;;;;3.72;2.25;;;22.10;54.70;;;;;;5022714;28;20485;-58
2022/04/12 10:46:00;;;;;;;4.60;1.77;;;22.20;54.30;;;;;;5018571;28;20047;-59
2022/04/12 10:48:29;;;;;;;2.15;1.90;;;22.30;53.60;;;;;;5029220;28;20501;-60
2022/04/12 10:50:56;;;;;;;2.80;1.65;;;22.30;53.10;;;;;;5029047;28;20067;-60
2022/04/12 10:53:37;;;;;;;5.18;2.00;;;22.30;52.50;;;;;;5023263;28;20400;-57
2022/04/12 10:56:10;;;;;;;3.25;2.08;;;22.30;52.50;;;;;;5028885;28;20026;-59
2022/04/12 10:58:36;;;;;;;3.70;2.00;;;22.20;54.40;;;;;;5031439;28;20638;-56
2022/04/12 11:01:04;;;;;;;2.55;1.85;;;22.10;53.70;;;;;;5010967;28;20044;-58
2022/04/12 11:03:42;;;;;;;3.83;1.95;;;22.30;54.20;;;;;;5027573;28;20029;-59
2022/04/12 11:06:14;;;;;;;6.97;2.20;;;22.10;52.30;;;;;;5027912;28;20408;-55
2022/04/12 11:08:47;;;;;;;3.42;1.77;;;21.90;51.70;;;;;;5026764;28;20032;-58
2022/04/12 11:11:17;;;;;;;3.83;2.03;;;22.00;53.00;;;;;;5033304;28;20057;-60
2022/04/12 11:13:44;;;;;;;2.53;1.80;;;22.00;53.50;;;;;;5032004;28;20060;-56
2022/04/12 11:16:12;;;;;;;3.92;1.60;;;22.10;52.60;;;;;;5029199;28;20017;-56
2022/04/12 11:18:52;;;;;;;8.40;2.30;;;21.80;52.20;;;;;;5025783;28;20089;-57
2022/04/12 11:21:23;;;;;;;4.57;1.95;;;21.80;52.20;;;;;;5032385;28;20030;-58
2022/04/12 11:24:00;;;;;;;5.75;1.67;;;21.70;51.80;;;;;;5024685;28;20079;-59
2022/04/12 11:26:34;;;;;;;5.15;2.08;;;21.80;53.20;;;;;;5017689;28;20025;-59
2022/04/12 11:29:00;;;;;;;3.72;1.70;;;21.70;53.10;;;;;;5018922;28;20109;-60
2022/04/12 11:31:26;;;;;;;2.70;1.60;;;21.70;53.30;;;;;;5022562;28;20152;-58
2022/04/12 11:33:51;;;;;;;2.33;1.55;;;21.80;54.70;;;;;;5030786;28;20025;-56
2022/04/12 11:36:20;;;;;;;3.25;1.67;;;22.00;54.10;;;;;;5023689;28;21398;-59
2022/04/12 11:38:47;;;;;;;2.65;1.55;;;22.20;53.90;;;;;;5021050;28;20041;-58
2022/04/12 11:41:12;;;;;;;4.05;1.60;;;22.10;52.80;;;;;;5026511;28;20033;-58
2022/04/12 11:43:38;;;;;;;4.38;1.30;;;22.20;53.90;;;;;;5025223;28;20499;-57
2022/04/12 11:46:04;;;;;;;1.73;1.30;;;22.30;54.30;;;;;;5025703;28;20040;-57
2022/04/12 11:48:32;;;;;;;3.00;1.67;;;22.40;53.80;;;;;;5025969;28;20018;-56
2022/04/12 11:51:01;;;;;;;4.43;1.73;;;22.20;54.10;;;;;;5025991;28;20041;-56
2022/04/12 11:53:27;;;;;;;6.53;1.50;;;22.10;54.00;;;;;;5024174;28;20060;-57
2022/04/12 11:56:00;;;;;;;4.47;1.58;;;22.00;53.70;;;;;;5028226;28;20131;-58
2022/04/12 11:58:29;;;;;;;7.35;1.67;;;22.10;55.00;;;;;;5027882;28;20032;-53
2022/04/12 12:00:55;;;;;;;4.13;1.10;;;22.10;55.30;;;;;;5029971;28;20029;-56
2022/04/12 12:03:31;;;;;;;7.95;1.20;;;22.20;55.20;;;;;;5028850;28;20105;-55
2022/04/12 12:05:57;;;;;;;3.05;1.20;;;22.30;55.20;;;;;;5023350;28;20044;-59
2022/04/12 12:08:23;;;;;;;2.25;1.27;;;22.50;56.50;;;;;;5030141;28;20025;-55
2022/04/12 12:10:52;;;;;;;5.05;1.63;;;22.50;54.30;;;;;;5032443;28;20108;-59
2022/04/12 12:13:22;;;;;;;4.38;1.45;;;22.60;54.80;;;;;;5031761;28;20065;-58
2022/04/12 12:15:48;;;;;;;1.88;1.52;;;22.60;55.70;;;;;;5032124;28;20044;-58
2022/04/12 12:18:15;;;;;;;2.47;1.17;;;22.70;55.00;;;;;;5032180;28;20030;-59
2022/04/12 12:20:41;;;;;;;3.75;1.20;;;22.70;54.00;;;;;;5032166;28;20546;-58
2022/04/12 12:23:11;;;;;;;10.43;1.73;;;22.80;54.60;;;;;;5028820;28;20555;-59
2022/04/12 12:25:46;;;;;;;2.83;1.48;;;22.70;55.20;;;;;;5031305;28;20033;-58
2022/04/12 12:28:20;;;;;;;2.55;1.60;;;22.70;55.00;;;;;;5031135;28;20021;-57
2022/04/12 12:30:47;;;;;;;2.63;1.08;;;22.60;54.00;;;;;;5030261;28;20124;-60
2022/04/12 12:33:14;;;;;;;2.10;0.90;;;22.50;54.90;;;;;;5029461;28;20044;-58
2022/04/12 12:35:45;;;;;;;4.03;1.33;;;22.60;56.00;;;;;;5029376;28;20025;-57
2022/04/12 12:38:16;;;;;;;4.80;1.27;;;22.60;56.10;;;;;;5031011;28;20782;-54
2022/04/12 12:40:43;;;;;;;2.58;1.85;;;22.60;56.00;;;;;;5027204;28;20103;-59
2022/04/12 12:43:11;;;;;;;3.45;1.20;;;22.70;55.10;;;;;;5032186;28;20718;-59
2022/04/12 12:45:45;;;;;;;5.30;1.30;;;22.70;55.40;;;;;;5029287;28;20060;-53
2022/04/12 12:48:15;;;;;;;2.00;1.00;;;22.70;54.90;;;;;;5029520;28;20104;-56
2022/04/12 12:50:42;;;;;;;4.40;1.27;;;22.70;55.10;;;;;;5029320;28;20487;-57
2022/04/12 12:53:10;;;;;;;2.70;1.50;;;22.50;54.10;;;;;;5028340;28;20068;-58